Time;durP1;ratioP1;P1;durP2;ratioP2;P2;SDS_P1;SDS_P2;PMS_P1;PMS_P2;Temp;Humidity;BMP_temperature;BMP_pressure;BME280_temperature;BME280_humidity;BME280_pressure;Samples;Min_cycle;Max_cycle;Signal;HPM_P1;HPM_P2
2024/05/01 00:00:46;;;;;;;3.15;1.08;;;;;;;;;;5192337;27;20052;-84
2024/05/01 00:03:14;;;;;;;1.85;1.10;;;;;;;;;;5218954;27;20006;-86
2024/05/01 00:05:40;;;;;;;3.00;1.15;;;;;;;;;;5219085;27;20011;-82
2024/05/01 00:08:06;;;;;;;3.15;1.23;;;;;;;;;;5217716;27;20008;-78
2024/05/01 00:10:32;;;;;;;2.15;1.20;;;;;;;;;;5216765;27;20003;-83
2024/05/01 00:12:58;;;;;;;1.77;1.02;;;;;;;;;;5212873;27;19996;-83
2024/05/01 00:15:24;;;;;;;3.53;1.15;;;;;;;;;;5158476;27;20019;-86
2024/05/01 00:17:50;;;;;;;3.45;1.23;;;;;;;;;;5186390;27;20070;-85
2024/05/01 00:20:16;;;;;;;2.45;1.25;;;;;;;;;;5219592;27;20056;-84
2024/05/01 00:22:42;;;;;;;5.95;1.55;;;;;;;;;;5220765;27;19995;-84
2024/05/01 00:25:08;;;;;;;2.50;0.90;;;;;;;;;;5191308;27;20032;-83
2024/05/01 00:27:34;;;;;;;6.13;1.50;;;;;;;;;;5190803;27;19995;-83
2024/05/01 00:30:00;;;;;;;3.13;1.40;;;;;;;;;;5189570;27;19996;-85
2024/05/01 00:32:28;;;;;;;2.25;1.20;;;;;;;;;;5218585;27;19999;-83
2024/05/01 00:34:54;;;;;;;3.58;1.45;;;;;;;;;;5189614;27;20018;-82
2024/05/01 00:37:20;;;;;;;1.65;1.10;;;;;;;;;;5218000;27;20436;-83
2024/05/01 00:39:46;;;;;;;4.13;1.30;;;;;;;;;;5218452;27;20008;-82
2024/05/01 00:42:12;;;;;;;2.95;1.20;;;;;;;;;;5189876;27;20040;-86
2024/05/01 00:44:38;;;;;;;2.55;1.30;;;;;;;;;;5184028;27;20009;-88
2024/05/01 00:47:04;;;;;;;4.47;1.70;;;;;;;;;;5190705;27;20000;-82
2024/05/01 00:49:30;;;;;;;2.42;1.13;;;;;;;;;;5218041;27;19999;-83
2024/05/01 00:51:56;;;;;;;2.58;1.58;;;;;;;;;;5218574;27;20424;-86
2024/05/01 00:54:23;;;;;;;3.90;1.10;;;;;;;;;;5217634;27;20012;-85
2024/05/01 00:56:49;;;;;;;3.80;1.55;;;;;;;;;;5208699;27;20016;-84
2024/05/01 00:59:15;;;;;;;5.05;1.38;;;;;;;;;;5186040;27;20008;-85
2024/05/01 01:01:41;;;;;;;6.80;1.40;;;;;;;;;;5158143;27;19997;-85
2024/05/01 01:04:07;;;;;;;4.63;1.50;;;;;;;;;;5185379;27;20046;-84
2024/05/01 01:06:33;;;;;;;3.28;1.33;;;;;;;;;;5189161;27;20084;-86
2024/05/01 01:08:59;;;;;;;1.92;1.10;;;;;;;;;;5190169;27;20008;-86
2024/05/01 01:11:25;;;;;;;2.22;1.10;;;;;;;;;;5182360;27;20015;-85
2024/05/01 01:13:51;;;;;;;3.20;1.17;;;;;;;;;;5204821;27;20020;-87
2024/05/01 01:16:17;;;;;;;4.25;1.50;;;;;;;;;;5187325;27;20004;-85
2024/05/01 01:18:43;;;;;;;4.47;1.40;;;;;;;;;;5185522;27;20047;-84
2024/05/01 01:21:10;;;;;;;4.35;1.60;;;;;;;;;;5184172;27;19996;-82
2024/05/01 01:23:36;;;;;;;1.90;1.30;;;;;;;;;;5184698;27;20009;-84
2024/05/01 01:26:02;;;;;;;4.35;1.65;;;;;;;;;;5212074;27;20430;-84
2024/05/01 01:28:28;;;;;;;3.03;1.50;;;;;;;;;;5194235;27;20049;-86
2024/05/01 01:30:54;;;;;;;3.42;1.35;;;;;;;;;;5188466;27;20008;-80
2024/05/01 01:33:20;;;;;;;2.40;1.45;;;;;;;;;;5188221;27;20000;-77
2024/05/01 01:35:46;;;;;;;3.58;1.50;;;;;;;;;;5188269;27;20000;-82
2024/05/01 01:38:12;;;;;;;3.03;1.50;;;;;;;;;;5188683;27;20003;-83
2024/05/01 01:40:38;;;;;;;2.05;0.90;;;;;;;;;;5215426;27;19999;-84
2024/05/01 01:43:04;;;;;;;2.45;1.30;;;;;;;;;;5216433;27;20011;-82
2024/05/01 01:45:30;;;;;;;3.35;1.40;;;;;;;;;;5216824;27;19999;-84
2024/05/01 01:47:56;;;;;;;1.85;1.20;;;;;;;;;;5216760;27;20028;-82
2024/05/01 01:50:22;;;;;;;3.55;1.60;;;;;;;;;;5216432;27;19995;-78
2024/05/01 01:52:49;;;;;;;3.97;1.50;;;;;;;;;;5186438;27;20007;-83
2024/05/01 01:55:15;;;;;;;3.25;1.20;;;;;;;;;;5185915;27;20024;-83
2024/05/01 01:57:42;;;;;;;3.42;1.63;;;;;;;;;;5187329;27;20078;-85
2024/05/01 02:00:08;;;;;;;2.58;1.17;;;;;;;;;;5217344;27;20000;-82
2024/05/01 02:02:35;;;;;;;2.60;1.30;;;;;;;;;;5187644;27;20000;-85
2024/05/01 02:05:01;;;;;;;4.40;1.40;;;;;;;;;;5217940;27;20007;-81
2024/05/01 02:07:27;;;;;;;2.70;1.50;;;;;;;;;;5216506;27;20008;-86
2024/05/01 02:09:53;;;;;;;4.00;1.00;;;;;;;;;;5215892;27;20032;-84
2024/05/01 02:12:19;;;;;;;2.33;1.05;;;;;;;;;;5188155;27;20321;-84
2024/05/01 02:14:45;;;;;;;5.78;1.58;;;;;;;;;;5188318;27;20047;-84
2024/05/01 02:17:11;;;;;;;2.58;1.30;;;;;;;;;;5185656;27;20007;-85
2024/05/01 02:19:37;;;;;;;3.55;1.33;;;;;;;;;;5181654;27;20037;-83
2024/05/01 02:22:04;;;;;;;3.50;1.20;;;;;;;;;;5182433;27;20008;-85
2024/05/01 02:24:30;;;;;;;3.80;1.30;;;;;;;;;;5184204;27;20004;-85
2024/05/01 02:26:56;;;;;;;2.22;1.40;;;;;;;;;;5183674;27;20075;-83
2024/05/01 02:29:22;;;;;;;2.75;1.50;;;;;;;;;;5187705;27;20008;-84
2024/05/01 02:31:48;;;;;;;4.32;1.38;;;;;;;;;;5216333;27;20009;-87
2024/05/01 02:34:14;;;;;;;2.22;1.42;;;;;;;;;;5213365;27;20003;-85
2024/05/01 02:36:40;;;;;;;3.60;1.50;;;;;;;;;;5213400;27;20008;-84
2024/05/01 02:39:06;;;;;;;2.60;1.55;;;;;;;;;;5185947;27;20008;-84
2024/05/01 02:41:32;;;;;;;5.68;1.88;;;;;;;;;;5215440;27;20074;-83
2024/05/01 02:43:58;;;;;;;6.13;1.30;;;;;;;;;;5186817;27;19999;-86
2024/05/01 02:46:24;;;;;;;5.95;1.60;;;;;;;;;;5187287;27;20016;-82
2024/05/01 02:48:50;;;;;;;3.45;1.20;;;;;;;;;;5185861;27;20429;-83
2024/05/01 02:51:16;;;;;;;2.60;1.50;;;;;;;;;;5186291;27;20011;-84
2024/05/01 02:53:42;;;;;;;3.47;1.45;;;;;;;;;;5187501;27;20001;-85
2024/05/01 02:56:08;;;;;;;5.85;1.42;;;;;;;;;;5205150;27;20107;-87
2024/05/01 02:58:34;;;;;;;2.10;1.50;;;;;;;;;;5180687;27;20001;-84
2024/05/01 03:01:01;;;;;;;2.83;1.38;;;;;;;;;;5183322;27;20526;-85
2024/05/01 03:03:27;;;;;;;2.83;1.38;;;;;;;;;;5182960;27;20087;-82
2024/05/01 03:05:53;;;;;;;3.55;1.30;;;;;;;;;;5182711;27;20004;-83
2024/05/01 03:08:19;;;;;;;2.35;1.30;;;;;;;;;;5198170;27;20489;-83
2024/05/01 03:10:45;;;;;;;5.63;1.52;;;;;;;;;;5214862;27;20023;-86
2024/05/01 03:13:15;;;;;;;3.95;1.77;;;;;;;;;;5214724;27;20023;-85
2024/05/01 03:15:41;;;;;;;8.80;1.73;;;;;;;;;;5212661;27;20067;-78
2024/05/01 03:18:07;;;;;;;4.07;1.50;;;;;;;;;;5212835;27;20012;-85
2024/05/01 03:20:33;;;;;;;2.22;1.40;;;;;;;;;;5213415;27;20044;-83
2024/05/01 03:23:00;;;;;;;5.53;1.48;;;;;;;;;;5210899;27;20334;-83
2024/05/01 03:25:26;;;;;;;7.50;1.40;;;;;;;;;;5182487;27;20005;-84
2024/05/01 03:27:52;;;;;;;4.38;1.60;;;;;;;;;;5180803;27;20057;-85
2024/05/01 03:30:18;;;;;;;8.32;1.95;;;;;;;;;;5182386;27;20003;-83
2024/05/01 03:32:44;;;;;;;3.30;1.65;;;;;;;;;;5181033;27;20032;-82
2024/05/01 03:35:10;;;;;;;3.60;1.70;;;;;;;;;;5183452;27;20427;-86
2024/05/01 03:37:36;;;;;;;3.92;1.80;;;;;;;;;;5186751;27;20010;-83
2024/05/01 03:40:02;;;;;;;2.92;1.70;;;;;;;;;;5214593;27;20000;-86
2024/05/01 03:42:31;;;;;;;2.65;1.55;;;;;;;;;;5216257;27;19999;-83
2024/05/01 03:44:57;;;;;;;4.80;1.73;;;;;;;;;;5221101;27;20007;-82
2024/05/01 03:47:23;;;;;;;1.52;1.40;;;;;;;;;;5222234;27;20012;-79
2024/05/01 03:49:51;;;;;;;3.33;1.70;;;;;;;;;;5220069;27;19996;-78
2024/05/01 03:52:17;;;;;;;5.57;1.60;;;;;;;;;;5215666;27;20434;-83
2024/05/01 03:54:44;;;;;;;2.38;1.70;;;;;;;;;;5181481;27;20006;-79
2024/05/01 03:57:10;;;;;;;4.65;1.67;;;;;;;;;;5186791;27;20015;-83
2024/05/01 03:59:36;;;;;;;2.55;1.75;;;;;;;;;;5187379;27;20003;-85
2024/05/01 04:02:02;;;;;;;1.65;1.33;;;;;;;;;;5213644;27;20004;-82
2024/05/01 04:04:28;;;;;;;4.55;1.90;;;;;;;;;;5187721;27;20449;-83
2024/05/01 04:06:54;;;;;;;3.67;1.90;;;;;;;;;;5217817;27;20003;-84
2024/05/01 04:09:22;;;;;;;12.57;2.25;;;;;;;;;;5217943;27;20421;-79
2024/05/01 04:11:48;;;;;;;4.32;1.70;;;;;;;;;;5218681;27;19995;-79
2024/05/01 04:14:14;;;;;;;4.15;2.03;;;;;;;;;;5195607;27;20016;-85
2024/05/01 04:16:40;;;;;;;3.13;1.83;;;;;;;;;;5157308;27;20007;-83
2024/05/01 04:19:06;;;;;;;4.75;1.60;;;;;;;;;;5159292;27;20402;-88
2024/05/01 04:21:32;;;;;;;2.80;1.80;;;;;;;;;;5188182;27;20502;-86
2024/05/01 04:23:58;;;;;;;5.40;1.70;;;;;;;;;;5188167;27;20045;-81
2024/05/01 04:26:26;;;;;;;5.68;1.75;;;;;;;;;;5203123;27;20007;-84
2024/05/01 04:28:52;;;;;;;2.88;1.50;;;;;;;;;;5190112;27;20004;-84
2024/05/01 04:31:18;;;;;;;5.43;1.95;;;;;;;;;;5158677;27;20020;-81
2024/05/01 04:33:44;;;;;;;3.08;1.58;;;;;;;;;;5170406;27;20023;-80
2024/05/01 04:36:10;;;;;;;3.22;1.58;;;;;;;;;;5223724;27;20008;-84
2024/05/01 04:38:38;;;;;;;4.28;2.00;;;;;;;;;;5219538;27;19996;-88
2024/05/01 04:41:10;;;;;;;2.78;1.70;;;;;;;;;;5194848;27;20000;-78
2024/05/01 04:43:53;;;;;;;5.95;1.50;;;;;;;;;;5164021;27;20443;-84
2024/05/01 04:46:21;;;;;;;3.28;1.70;;;;;;;;;;5198347;27;20032;-81
2024/05/01 04:48:49;;;;;;;3.45;1.52;;;;;;;;;;5203999;27;20015;-87
2024/05/01 04:51:15;;;;;;;8.02;1.42;;;;;;;;;;5158252;27;20003;-81
2024/05/01 04:53:42;;;;;;;3.05;1.73;;;;;;;;;;5165895;27;20361;-86
2024/05/01 04:56:10;;;;;;;2.38;1.40;;;;;;;;;;5222630;27;20000;-80
2024/05/01 04:58:37;;;;;;;4.40;1.67;;;;;;;;;;5192726;27;20004;-84
2024/05/01 05:01:04;;;;;;;4.85;2.20;;;;;;;;;;5220038;27;20024;-79
2024/05/01 05:03:30;;;;;;;3.17;1.70;;;;;;;;;;5192816;27;19991;-82
2024/05/01 05:05:56;;;;;;;4.03;1.38;;;;;;;;;;5220705;27;20011;-85
2024/05/01 05:08:22;;;;;;;3.60;1.90;;;;;;;;;;5219502;27;20024;-85
2024/05/01 05:10:48;;;;;;;4.78;1.75;;;;;;;;;;5191312;27;20028;-84
2024/05/01 05:13:14;;;;;;;1.90;1.42;;;;;;;;;;5191654;27;19999;-83
2024/05/01 05:15:40;;;;;;;3.50;1.58;;;;;;;;;;5189067;27;19999;-82
2024/05/01 05:18:06;;;;;;;4.05;1.48;;;;;;;;;;5219776;27;20015;-85
2024/05/01 05:20:32;;;;;;;3.30;1.85;;;;;;;;;;5217637;27;20003;-84
2024/05/01 05:22:58;;;;;;;2.75;1.50;;;;;;;;;;5192263;27;20503;-82
2024/05/01 05:25:25;;;;;;;2.75;1.92;;;;;;;;;;5186276;27;20446;-78
2024/05/01 05:27:51;;;;;;;3.15;1.70;;;;;;;;;;5157653;27;20340;-79
2024/05/01 05:30:17;;;;;;;7.05;1.52;;;;;;;;;;5156167;27;20427;-85
2024/05/01 05:32:43;;;;;;;3.78;1.73;;;;;;;;;;5185943;27;20069;-86
2024/05/01 05:35:09;;;;;;;4.70;2.10;;;;;;;;;;5208621;27;20008;-82
2024/05/01 05:37:35;;;;;;;3.03;1.52;;;;;;;;;;5219543;27;20449;-81
2024/05/01 05:40:01;;;;;;;2.75;1.65;;;;;;;;;;5218226;27;20000;-82
2024/05/01 05:42:27;;;;;;;5.45;1.98;;;;;;;;;;5191951;27;20004;-84
2024/05/01 05:44:54;;;;;;;3.90;1.90;;;;;;;;;;5164080;27;19999;-80
2024/05/01 05:47:20;;;;;;;3.88;1.90;;;;;;;;;;5167047;27;20447;-84
2024/05/01 05:49:47;;;;;;;5.05;1.70;;;;;;;;;;5158983;27;20418;-83
2024/05/01 05:52:14;;;;;;;7.38;2.38;;;;;;;;;;5160941;27;20028;-83
2024/05/01 05:54:40;;;;;;;3.05;1.80;;;;;;;;;;5159651;27;20004;-83
2024/05/01 05:57:06;;;;;;;4.03;2.78;;;;;;;;;;5161036;27;20007;-83
2024/05/01 05:59:32;;;;;;;2.95;1.85;;;;;;;;;;5158703;27;20000;-84
2024/05/01 06:02:00;;;;;;;2.67;1.77;;;;;;;;;;5217658;27;20020;-78
2024/05/01 06:04:26;;;;;;;6.45;2.00;;;;;;;;;;5215656;27;20004;-79
2024/05/01 06:06:52;;;;;;;2.40;1.67;;;;;;;;;;5212502;27;20023;-79
2024/05/01 06:09:18;;;;;;;2.05;1.52;;;;;;;;;;5209648;27;20004;-81
2024/05/01 06:11:44;;;;;;;5.97;2.25;;;;;;;;;;5186126;27;20007;-83
2024/05/01 06:14:10;;;;;;;5.50;1.75;;;;;;;;;;5213492;27;19995;-81
2024/05/01 06:16:36;;;;;;;4.45;2.58;;;;;;;;;;5213178;27;20003;-81
2024/05/01 06:19:02;;;;;;;4.57;2.00;;;;;;;;;;5200922;27;20009;-81
2024/05/01 06:21:28;;;;;;;5.57;2.42;;;;;;;;;;5180937;27;20005;-81
2024/05/01 06:23:54;;;;;;;4.55;1.98;;;;;;;;;;5171985;27;20004;-80
2024/05/01 06:26:22;;;;;;;3.55;2.28;;;;;;;;;;5213870;27;20011;-81
2024/05/01 06:28:53;;;;;;;3.85;2.25;;;;;;;;;;5214046;27;20003;-78
2024/05/01 06:31:19;;;;;;;6.80;1.98;;;;;;;;;;5213443;27;20003;-81
2024/05/01 06:33:46;;;;;;;4.65;2.08;;;;;;;;;;5213684;27;20026;-81
2024/05/01 06:36:12;;;;;;;3.92;2.30;;;;;;;;;;5212878;27;20042;-84
2024/05/01 06:38:38;;;;;;;4.40;2.22;;;;;;;;;;5209561;27;20083;-78
2024/05/01 06:41:04;;;;;;;5.80;2.00;;;;;;;;;;5190194;27;20012;-81
2024/05/01 06:43:30;;;;;;;6.38;2.53;;;;;;;;;;5215317;27;20015;-85
2024/05/01 06:45:56;;;;;;;10.82;2.55;;;;;;;;;;5217838;27;20002;-82
2024/05/01 06:48:22;;;;;;;4.78;2.13;;;;;;;;;;5219083;27;20003;-83
2024/05/01 06:51:08;;;;;;;7.22;2.05;;;;;;;;;;5213814;27;20011;-82
2024/05/01 06:53:35;;;;;;;2.88;2.35;;;;;;;;;;5200229;27;20000;-81
2024/05/01 06:56:08;;;;;;;3.95;2.50;;;;;;;;;;5188288;27;20031;-80
2024/05/01 06:58:34;;;;;;;3.80;2.45;;;;;;;;;;5191543;27;20004;-78
2024/05/01 07:01:02;;;;;;;4.57;2.72;;;;;;;;;;5201652;27;20036;-78
2024/05/01 07:03:30;;;;;;;4.03;3.00;;;;;;;;;;5189357;27;20004;-79
2024/05/01 07:05:57;;;;;;;3.40;2.30;;;;;;;;;;5163932;27;19999;-85
2024/05/01 07:08:29;;;;;;;4.68;2.78;;;;;;;;;;5325531;22;20001;-83
2024/05/01 07:10:55;;;;;;;4.82;2.47;;;;;;;;;;5330721;26;20005;-86
2024/05/01 07:13:21;;;;;;;6.10;2.60;;;;;;;;;;5303637;26;19998;-85
2024/05/01 07:15:54;;;;;;;4.60;2.65;;;;;;;;;;5332941;27;19996;-88
2024/05/01 07:18:21;;;;;;;6.13;2.72;;;;;;;;;;5299145;27;20046;-81
2024/05/01 07:20:50;;;;;;;4.30;2.40;;;;;;;;;;5295502;27;20006;-86
2024/05/01 07:23:23;;;;;;;6.53;2.75;;;;;;;;;;5229745;27;20558;-82
2024/05/01 07:25:49;;;;;;;7.40;2.87;;;;;;;;;;5259732;27;19998;-90
2024/05/01 07:28:15;;;;;;;7.20;2.63;;;;;;;;;;5280268;27;20014;-87
2024/05/01 07:30:42;;;;;;;8.63;3.10;;;;;;;;;;5268675;27;20002;-82
2024/05/01 07:33:11;;;;;;;7.90;2.88;;;;;;;;;;5264195;27;20050;-88
2024/05/01 07:35:38;;;;;;;8.13;3.13;;;;;;;;;;5292471;27;20006;-86
2024/05/01 07:38:10;;;;;;;4.15;2.50;;;;;;;;;;5243197;27;20335;-87
2024/05/01 07:40:38;;;;;;;6.10;2.95;;;;;;;;;;5275462;26;20025;-84
2024/05/01 07:43:12;;;;;;;11.02;3.22;;;;;;;;;;5268857;27;19994;-87
2024/05/01 07:45:41;;;;;;;4.93;3.08;;;;;;;;;;5270283;27;20014;-85
2024/05/01 07:48:08;;;;;;;12.25;3.05;;;;;;;;;;5268400;27;20010;-86
2024/05/01 07:50:34;;;;;;;5.72;2.60;;;;;;;;;;5255437;27;20005;-88
2024/05/01 07:53:00;;;;;;;5.38;2.45;;;;;;;;;;5258711;27;20006;-82
2024/05/01 07:55:26;;;;;;;3.75;2.70;;;;;;;;;;5271058;27;20009;-83
2024/05/01 07:57:52;;;;;;;2.97;2.67;;;;;;;;;;5256754;27;20003;-82
2024/05/01 08:00:18;;;;;;;6.18;2.50;;;;;;;;;;5232027;27;20015;-85
2024/05/01 08:02:44;;;;;;;4.43;2.67;;;;;;;;;;5229595;27;19999;-83
2024/05/01 08:05:11;;;;;;;8.88;2.78;;;;;;;;;;5233398;27;20010;-81
2024/05/01 08:07:37;;;;;;;16.67;2.80;;;;;;;;;;5254267;27;20002;-84
2024/05/01 08:10:03;;;;;;;6.15;2.92;;;;;;;;;;5263944;27;19999;-86
2024/05/01 08:12:29;;;;;;;7.72;2.85;;;;;;;;;;5291084;27;20051;-87
2024/05/01 08:14:55;;;;;;;2.42;2.22;;;;;;;;;;5235836;27;19999;-85
2024/05/01 08:17:23;;;;;;;4.70;2.47;;;;;;;;;;5237551;27;20007;-85
2024/05/01 08:19:49;;;;;;;8.43;2.60;;;;;;;;;;5245488;27;19994;-83
2024/05/01 08:22:16;;;;;;;4.70;2.67;;;;;;;;;;5266596;27;19999;-87
2024/05/01 08:24:43;;;;;;;4.68;3.15;;;;;;;;;;5208823;27;20007;-87
2024/05/01 08:27:10;;;;;;;5.28;2.90;;;;;;;;;;5274037;27;20007;-87
2024/05/01 08:29:36;;;;;;;4.25;2.70;;;;;;;;;;5259423;27;20070;-86
2024/05/01 08:32:11;;;;;;;5.15;2.63;;;;;;;;;;5264992;27;20003;-82
2024/05/01 08:34:38;;;;;;;5.88;3.15;;;;;;;;;;5256676;27;20021;-88
2024/05/01 08:37:04;;;;;;;5.30;2.42;;;;;;;;;;5268209;27;19998;-84
2024/05/01 08:39:30;;;;;;;3.63;2.83;;;;;;;;;;5260266;27;20003;-80
2024/05/01 08:41:57;;;;;;;4.75;2.70;;;;;;;;;;5260379;27;20003;-83
2024/05/01 08:44:23;;;;;;;5.28;3.13;;;;;;;;;;5296047;27;19999;-86
2024/05/01 08:46:51;;;;;;;5.60;2.95;;;;;;;;;;5259960;27;19994;-85
2024/05/01 08:49:17;;;;;;;4.65;2.83;;;;;;;;;;5233466;27;20010;-87
2024/05/01 08:51:57;;;;;;;4.07;2.50;;;;;;;;;;5266057;27;20006;-88
2024/05/01 08:54:23;;;;;;;7.95;2.90;;;;;;;;;;5259012;27;20448;-87
2024/05/01 08:56:50;;;;;;;4.30;3.13;;;;;;;;;;5294247;27;20030;-87
2024/05/01 08:59:17;;;;;;;3.28;2.60;;;;;;;;;;5263038;27;20025;-86
2024/05/01 09:01:43;;;;;;;4.28;2.63;;;;;;;;;;5288964;27;20010;-84
2024/05/01 09:04:09;;;;;;;6.68;2.85;;;;;;;;;;5257900;27;20002;-87
2024/05/01 09:06:35;;;;;;;6.40;2.78;;;;;;;;;;5258418;27;20010;-88
2024/05/01 09:09:01;;;;;;;10.27;3.20;;;;;;;;;;5258205;27;20002;-87
2024/05/01 09:11:27;;;;;;;9.32;3.25;;;;;;;;;;5287817;27;20002;-86
2024/05/01 09:13:56;;;;;;;7.25;2.92;;;;;;;;;;5258351;27;19998;-86
2024/05/01 09:16:22;;;;;;;3.45;2.50;;;;;;;;;;5257225;27;20011;-84
2024/05/01 09:18:49;;;;;;;3.13;2.70;;;;;;;;;;5286433;27;20005;-87
2024/05/01 09:21:15;;;;;;;8.75;2.55;;;;;;;;;;5287589;27;20347;-88
2024/05/01 09:23:42;;;;;;;6.18;3.95;;;;;;;;;;5229899;27;20034;-85
2024/05/01 09:26:08;;;;;;;7.55;3.53;;;;;;;;;;5257820;27;20043;-87
2024/05/01 09:28:35;;;;;;;5.50;2.80;;;;;;;;;;5257989;27;20327;-84
2024/05/01 09:31:01;;;;;;;6.78;3.08;;;;;;;;;;5289585;27;20008;-86
2024/05/01 09:33:27;;;;;;;4.45;2.88;;;;;;;;;;5288484;27;20049;-84
2024/05/01 09:35:55;;;;;;;5.13;2.45;;;;;;;;;;5258219;27;20009;-86
2024/05/01 09:38:25;;;;;;;6.00;2.70;;;;;;;;;;5226411;27;19998;-84
2024/05/01 09:40:56;;;;;;;4.32;2.92;;;;;;;;;;5254304;27;20031;-85
2024/05/01 09:43:23;;;;;;;7.57;3.00;;;;;;;;;;5225729;27;19999;-88
2024/05/01 09:45:52;;;;;;;3.45;2.80;;;;;;;;;;5225459;27;20014;-87
2024/05/01 09:48:18;;;;;;;14.98;2.88;;;;;;;;;;5225786;27;19995;-87
2024/05/01 09:50:44;;;;;;;7.72;3.15;;;;;;;;;;5254751;27;19999;-87
2024/05/01 09:53:11;;;;;;;4.13;2.97;;;;;;;;;;5224033;27;20019;-87
2024/05/01 09:55:39;;;;;;;6.35;3.35;;;;;;;;;;5225067;27;20015;-86
2024/05/01 09:58:05;;;;;;;3.65;2.47;;;;;;;;;;5255755;27;20059;-89
2024/05/01 10:00:33;;;;;;;6.53;2.67;;;;;;;;;;5254652;27;20022;-84
2024/05/01 10:03:03;;;;;;;4.28;2.67;;;;;;;;;;5197852;27;19995;-85
2024/05/01 10:05:29;;;;;;;5.85;3.00;;;;;;;;;;5225112;27;20082;-87
2024/05/01 10:07:56;;;;;;;6.43;3.20;;;;;;;;;;5252555;27;19999;-83
2024/05/01 10:10:30;;;;;;;6.00;2.95;;;;;;;;;;5252642;27;20014;-85
2024/05/01 10:12:57;;;;;;;6.55;3.00;;;;;;;;;;5223739;27;19995;-86
2024/05/01 10:15:34;;;;;;;6.80;2.70;;;;;;;;;;5252350;27;20006;-87
2024/05/01 10:18:04;;;;;;;4.93;2.78;;;;;;;;;;5255720;27;19999;-87
2024/05/01 10:20:31;;;;;;;12.32;2.78;;;;;;;;;;5223910;27;20015;-82
2024/05/01 10:23:07;;;;;;;7.50;2.55;;;;;;;;;;5222816;27;20003;-80
2024/05/01 10:25:34;;;;;;;3.17;2.88;;;;;;;;;;5253112;27;20002;-84
2024/05/01 10:28:02;;;;;;;4.57;2.75;;;;;;;;;;5198171;27;20018;-84
2024/05/01 10:30:33;;;;;;;8.23;3.03;;;;;;;;;;5253039;27;19999;-85
2024/05/01 10:32:59;;;;;;;4.55;2.67;;;;;;;;;;5224045;27;19995;-88
2024/05/01 10:35:30;;;;;;;5.20;2.78;;;;;;;;;;5256749;27;20003;-85
2024/05/01 10:37:58;;;;;;;5.07;2.92;;;;;;;;;;5255639;27;19999;-87
2024/05/01 10:40:25;;;;;;;6.75;2.70;;;;;;;;;;5286550;27;20019;-86
2024/05/01 10:42:52;;;;;;;5.07;2.88;;;;;;;;;;5253757;27;20006;-83
2024/05/01 10:45:18;;;;;;;4.50;2.95;;;;;;;;;;5253380;27;20081;-79
2024/05/01 10:47:46;;;;;;;6.15;2.67;;;;;;;;;;5229660;27;19994;-86
2024/05/01 10:50:13;;;;;;;6.68;3.30;;;;;;;;;;5288091;27;19998;-86
2024/05/01 10:52:39;;;;;;;7.65;3.00;;;;;;;;;;5288331;27;20010;-85
2024/05/01 10:55:05;;;;;;;6.22;3.00;;;;;;;;;;5256063;27;20002;-87
2024/05/01 10:57:32;;;;;;;8.18;3.30;;;;;;;;;;5287594;27;19998;-86
2024/05/01 10:59:58;;;;;;;5.40;3.10;;;;;;;;;;5256443;27;20013;-87
2024/05/01 11:02:24;;;;;;;11.90;3.22;;;;;;;;;;5256031;27;20002;-87
2024/05/01 11:04:51;;;;;;;3.38;2.38;;;;;;;;;;5258089;27;19998;-82
2024/05/01 11:07:17;;;;;;;4.65;2.63;;;;;;;;;;5292187;27;20013;-83
2024/05/01 11:10:03;;;;;;;11.98;3.20;;;;;;;;;;5264716;27;20010;-81
2024/05/01 11:12:30;;;;;;;3.83;2.63;;;;;;;;;;5265215;27;19995;-87
2024/05/01 11:15:03;;;;;;;8.35;3.00;;;;;;;;;;5295318;27;20038;-88
2024/05/01 11:17:31;;;;;;;5.28;2.70;;;;;;;;;;5263019;27;20001;-88
2024/05/01 11:19:57;;;;;;;3.10;2.60;;;;;;;;;;5291154;27;20049;-86
2024/05/01 11:22:23;;;;;;;6.90;2.95;;;;;;;;;;5292408;27;20014;-85
2024/05/01 11:24:49;;;;;;;5.35;2.72;;;;;;;;;;5296821;26;20010;-86
2024/05/01 11:27:15;;;;;;;4.00;2.42;;;;;;;;;;5273163;27;20005;-87
2024/05/01 11:29:41;;;;;;;6.90;2.83;;;;;;;;;;5303406;27;20009;-88
2024/05/01 11:32:09;;;;;;;4.18;2.70;;;;;;;;;;5299956;27;20064;-88
2024/05/01 11:34:35;;;;;;;4.13;2.78;;;;;;;;;;5271094;27;20064;-87
2024/05/01 11:37:01;;;;;;;7.63;2.65;;;;;;;;;;5285475;27;20782;-84
2024/05/01 11:39:28;;;;;;;6.18;2.83;;;;;;;;;;5266593;27;20007;-86
2024/05/01 11:41:54;;;;;;;6.60;2.80;;;;;;;;;;5267594;27;20011;-87
2024/05/01 11:44:20;;;;;;;7.03;2.90;;;;;;;;;;5238701;27;20015;-88
2024/05/01 11:46:46;;;;;;;5.00;2.83;;;;;;;;;;5267984;27;20006;-87
2024/05/01 11:49:12;;;;;;;6.97;2.75;;;;;;;;;;5267527;27;20034;-86
2024/05/01 11:51:40;;;;;;;10.43;3.45;;;;;;;;;;5268167;27;19999;-87
2024/05/01 11:54:06;;;;;;;5.88;2.83;;;;;;;;;;5238587;27;20073;-85
2024/05/01 11:56:33;;;;;;;3.60;2.70;;;;;;;;;;5267242;27;20003;-89
2024/05/01 11:58:59;;;;;;;4.65;2.53;;;;;;;;;;5267744;27;20006;-86
2024/05/01 12:01:25;;;;;;;5.35;2.83;;;;;;;;;;5266931;27;20126;-86
2024/05/01 12:03:54;;;;;;;6.10;2.80;;;;;;;;;;5238598;27;20015;-87
2024/05/01 12:06:22;;;;;;;6.85;2.88;;;;;;;;;;5257040;27;20003;-83
2024/05/01 12:08:48;;;;;;;5.28;2.97;;;;;;;;;;5232713;27;20448;-88
2024/05/01 12:11:18;;;;;;;3.85;2.97;;;;;;;;;;5266180;27;20455;-88
2024/05/01 12:13:44;;;;;;;4.22;2.40;;;;;;;;;;5211641;27;20013;-86
2024/05/01 12:16:12;;;;;;;5.95;3.13;;;;;;;;;;5238188;27;20081;-87
2024/05/01 12:18:38;;;;;;;6.70;2.83;;;;;;;;;;5237877;27;19987;-89
2024/05/01 12:21:10;;;;;;;6.20;3.13;;;;;;;;;;5240024;27;19995;-85
2024/05/01 12:23:36;;;;;;;3.33;2.67;;;;;;;;;;5266535;27;20014;-88
2024/05/01 12:26:09;;;;;;;5.85;2.90;;;;;;;;;;5240822;27;19998;-87
2024/05/01 12:28:36;;;;;;;7.80;2.78;;;;;;;;;;5240129;27;20003;-87
2024/05/01 12:31:02;;;;;;;6.50;2.97;;;;;;;;;;5270410;27;19995;-86
2024/05/01 12:33:37;;;;;;;4.55;3.10;;;;;;;;;;5242800;27;20001;-88
2024/05/01 12:36:06;;;;;;;8.15;2.70;;;;;;;;;;5269501;27;20008;-85
2024/05/01 12:38:35;;;;;;;6.75;2.80;;;;;;;;;;5236470;27;20039;-88
2024/05/01 12:41:12;;;;;;;2.97;2.30;;;;;;;;;;5238365;27;19995;-86
2024/05/01 12:43:48;;;;;;;4.40;2.97;;;;;;;;;;5210576;27;20002;-87
2024/05/01 12:46:37;;;;;;;6.15;2.55;;;;;;;;;;5265131;27;19999;-84
2024/05/01 12:49:07;;;;;;;4.30;2.50;;;;;;;;;;5224654;27;20096;-86
2024/05/01 12:51:35;;;;;;;7.78;3.40;;;;;;;;;;5266274;27;20351;-87
2024/05/01 12:54:02;;;;;;;5.78;2.80;;;;;;;;;;5208339;27;20013;-88
2024/05/01 12:56:42;;;;;;;6.68;2.78;;;;;;;;;;5265306;27;20010;-86
2024/05/01 12:59:10;;;;;;;6.07;2.92;;;;;;;;;;5264230;27;20006;-87
2024/05/01 13:01:39;;;;;;;6.75;3.47;;;;;;;;;;5264220;27;19993;-88
2024/05/01 13:04:12;;;;;;;3.53;2.60;;;;;;;;;;5238953;27;20006;-86
2024/05/01 13:06:38;;;;;;;6.95;2.70;;;;;;;;;;5263685;27;20026;-84
2024/05/01 13:09:09;;;;;;;4.05;2.90;;;;;;;;;;5263255;27;20005;-86
2024/05/01 13:11:36;;;;;;;7.20;2.83;;;;;;;;;;5207879;27;20003;-85
2024/05/01 13:14:03;;;;;;;4.55;2.80;;;;;;;;;;5227914;27;19995;-80
2024/05/01 13:16:30;;;;;;;7.35;2.75;;;;;;;;;;5253694;27;20073;-79
2024/05/01 13:18:56;;;;;;;7.80;3.20;;;;;;;;;;5253093;27;20009;-84
2024/05/01 13:21:25;;;;;;;3.25;2.83;;;;;;;;;;5230400;27;19999;-81
2024/05/01 13:23:51;;;;;;;9.75;2.92;;;;;;;;;;5257082;27;20011;-80
2024/05/01 13:26:41;;;;;;;10.63;3.05;;;;;;;;;;5259363;27;19999;-83
2024/05/01 13:29:13;;;;;;;3.60;2.85;;;;;;;;;;5228411;27;19999;-86
2024/05/01 13:31:50;;;;;;;3.75;2.60;;;;;;;;;;5254407;27;20035;-84
2024/05/01 13:34:18;;;;;;;5.43;2.90;;;;;;;;;;5222653;27;20010;-84
2024/05/01 13:36:44;;;;;;;2.88;2.55;;;;;;;;;;5236486;27;20002;-81
2024/05/01 13:39:34;;;;;;;4.20;2.90;;;;;;;;;;5286403;27;19998;-86
2024/05/01 13:42:15;;;;;;;3.97;2.80;;;;;;;;;;5285346;27;20383;-81
2024/05/01 13:44:41;;;;;;;7.07;3.35;;;;;;;;;;5256044;27;19994;-79
2024/05/01 13:47:24;;;;;;;5.45;3.13;;;;;;;;;;5284648;27;20077;-83
2024/05/01 13:49:50;;;;;;;7.18;3.05;;;;;;;;;;5289897;27;19994;-88
2024/05/01 13:52:16;;;;;;;5.53;3.17;;;;;;;;;;5290244;27;20002;-89
2024/05/01 13:54:43;;;;;;;5.60;3.00;;;;;;;;;;5292707;27;20021;-87
2024/05/01 13:57:25;;;;;;;5.70;3.20;;;;;;;;;;5291563;27;19998;-89
2024/05/01 13:59:55;;;;;;;6.50;3.35;;;;;;;;;;5289783;27;20005;-89
2024/05/01 14:02:24;;;;;;;7.13;3.80;;;;;;;;;;5289664;27;20022;-89
2024/05/01 14:04:50;;;;;;;4.47;3.25;;;;;;;;;;5290421;27;19998;-88
2024/05/01 14:07:24;;;;;;;6.82;3.63;;;;;;;;;;5291070;27;20014;-85
2024/05/01 14:09:51;;;;;;;7.93;3.80;;;;;;;;;;5261105;27;20006;-87
2024/05/01 14:12:18;;;;;;;3.85;3.45;;;;;;;;;;5288786;27;19994;-86
2024/05/01 14:14:46;;;;;;;6.65;2.72;;;;;;;;;;5264271;27;20014;-85
2024/05/01 14:17:19;;;;;;;4.28;3.60;;;;;;;;;;5288970;27;19998;-86
2024/05/01 14:19:45;;;;;;;7.53;3.67;;;;;;;;;;5292173;27;19994;-86
2024/05/01 14:22:16;;;;;;;3.85;3.00;;;;;;;;;;5293533;27;20006;-85
2024/05/01 14:24:42;;;;;;;4.10;3.10;;;;;;;;;;5295078;27;20002;-88
2024/05/01 14:27:18;;;;;;;5.32;3.03;;;;;;;;;;5294169;27;20006;-83
2024/05/01 14:29:44;;;;;;;4.55;3.15;;;;;;;;;;5294698;27;20002;-83
2024/05/01 14:32:23;;;;;;;5.55;2.97;;;;;;;;;;5291090;27;19998;-88
2024/05/01 14:34:57;;;;;;;7.70;3.20;;;;;;;;;;5290632;27;20006;-87
2024/05/01 14:37:30;;;;;;;5.28;4.00;;;;;;;;;;5272137;27;20468;-84
2024/05/01 14:39:57;;;;;;;6.35;3.13;;;;;;;;;;5257895;27;20005;-82
2024/05/01 14:42:23;;;;;;;4.55;2.97;;;;;;;;;;5288019;27;20069;-88
2024/05/01 14:44:52;;;;;;;7.10;3.58;;;;;;;;;;5258124;27;20009;-80